createdAt,value
2023-02-22T00:01:08.296Z,99281.25
2023-02-22T00:03:39.142Z,99282.09
2023-02-22T00:06:08.324Z,99279.31
2023-02-22T00:08:38.489Z,99284.34
2023-02-22T00:11:09.575Z,99277.47
2023-02-22T00:13:38.933Z,99292.94
2023-02-22T00:16:08.309Z,99287.41
2023-02-22T00:18:38.160Z,99285.47
2023-02-22T00:21:10.670Z,99294.59
2023-02-22T00:23:46.643Z,99294.91
2023-02-22T00:26:19.215Z,99294.91
2023-02-22T00:28:49.933Z,99296.84
2023-02-22T00:31:19.326Z,99293.78
2023-02-22T00:33:49.464Z,99298.78
2023-02-22T00:36:17.918Z,99297.97
2023-02-22T00:38:46.329Z,99295.50
2023-02-22T00:41:15.299Z,99294.16
2023-02-22T00:43:43.834Z,99295.31
2023-02-22T00:46:14.458Z,99292.81
2023-02-22T00:48:42.927Z,99299.19
2023-02-22T00:51:13.184Z,99290.34
2023-02-22T00:53:41.576Z,99303.06
2023-02-22T00:56:10.008Z,99294.75
2023-02-22T00:58:38.558Z,99296.41
2023-02-22T01:01:07.275Z,99295.31
2023-02-22T01:03:35.683Z,99294.47
2023-02-22T01:06:04.182Z,99287.78
2023-02-22T01:08:34.011Z,99282.25
2023-02-22T01:11:02.418Z,99276.72
2023-02-22T01:13:30.839Z,99286.69
2023-02-22T01:16:00.716Z,99276.72
2023-02-22T01:18:29.178Z,99282.25
2023-02-22T01:20:57.553Z,99285.84
2023-02-22T01:23:25.948Z,99276.44
2023-02-22T01:25:55.780Z,99274.47
2023-02-22T01:28:24.319Z,99268.63
2023-02-22T01:30:53.002Z,99277.78
2023-02-22T01:33:21.487Z,99273.88
2023-02-22T01:35:50.947Z,99269.97
2023-02-22T01:38:19.530Z,99266.06
2023-02-22T01:40:50.995Z,99267.72
2023-02-22T01:43:25.600Z,99261.34
2023-02-22T01:46:01.235Z,99261.66
2023-02-22T01:48:37.019Z,99261.66
2023-02-22T01:51:12.588Z,99256.41
2023-02-22T01:53:49.423Z,99261.16
2023-02-22T01:56:19.289Z,99251.19
2023-02-22T01:58:53.677Z,99258.16
2023-02-22T02:01:25.022Z,99256.53
2023-02-22T02:03:58.703Z,99256.22
2023-02-22T02:06:29.512Z,99260.91
2023-02-22T02:09:03.896Z,99254.53
2023-02-22T02:11:33.595Z,99252.59
2023-02-22T02:14:03.393Z,99245.44
2023-02-22T02:16:40.144Z,99243.47
2023-02-22T02:19:22.615Z,99243.47
2023-02-22T02:22:25.758Z,99246.88
2023-02-22T02:25:54.254Z,99247.97
2023-02-22T02:29:02.288Z,99239.66
2023-02-22T02:32:13.245Z,99245.22
2023-02-22T02:34:51.672Z,99241.84
2023-02-22T02:37:33.272Z,99243.47
2023-02-22T02:40:12.910Z,99243.47
2023-02-22T02:42:50.244Z,99242.66
2023-02-22T02:45:25.308Z,99232.38
2023-02-22T02:47:59.275Z,99240.41
2023-02-22T02:50:32.438Z,99232.91
2023-02-22T02:53:06.618Z,99224.59
2023-02-22T02:55:36.997Z,99233.72
2023-02-22T02:58:06.309Z,99234.56
2023-02-22T03:00:42.015Z,99229.34
2023-02-22T03:03:47.752Z,99237.13
2023-02-22T03:06:49.436Z,99235.47
2023-02-22T03:09:35.066Z,99237.72
2023-02-22T03:12:20.252Z,99239.97
2023-02-22T03:15:04.491Z,99242.75
2023-02-22T03:17:47.524Z,99245.81
2023-02-22T03:20:31.668Z,99241.41
2023-02-22T03:23:07.364Z,99250.81
2023-02-22T03:25:41.426Z,99248.88
2023-02-22T03:28:15.206Z,99250.53
2023-02-22T03:30:49.996Z,99254.13
2023-02-22T03:33:28.066Z,99246.63
2023-02-22T03:36:04.718Z,99254.13
2023-02-22T03:38:38.358Z,99248.06
2023-02-22T03:41:10.177Z,99248.06
2023-02-22T03:43:44.672Z,99250.28
2023-02-22T03:46:15.810Z,99249.44
2023-02-22T03:48:54.317Z,99253.34
2023-02-22T03:51:24.842Z,99238.16
2023-02-22T03:53:53.762Z,99248.41
2023-02-22T03:56:27.345Z,99241.84
2023-02-22T03:58:56.601Z,99257.94
2023-02-22T04:01:25.053Z,99243.25
2023-02-22T04:03:53.529Z,99245.50
2023-02-22T04:06:23.445Z,99236.69
2023-02-22T04:08:51.866Z,99246.94
2023-02-22T04:11:20.314Z,99235.34
2023-02-22T04:13:48.767Z,99240.06
2023-02-22T04:16:17.404Z,99237.28
2023-02-22T04:18:45.895Z,99248.34
2023-02-22T04:21:15.082Z,99238.38
2023-02-22T04:23:45.042Z,99248.66
2023-02-22T04:26:13.615Z,99251.44
2023-02-22T04:28:42.014Z,99248.66
2023-02-22T04:31:10.642Z,99247.84
2023-02-22T04:33:39.176Z,99246.69
2023-02-22T04:36:09.007Z,99248.66
2023-02-22T04:38:37.796Z,99248.94
2023-02-22T04:41:07.673Z,99247.00
2023-02-22T04:43:36.064Z,99243.41
2023-02-22T04:46:04.744Z,99237.59
2023-02-22T04:48:33.390Z,99244.75
2023-02-22T04:51:01.844Z,99248.34
2023-02-22T04:53:30.322Z,99240.06
2023-02-22T04:55:58.717Z,99240.38
2023-02-22T04:58:28.571Z,99245.38
2023-02-22T05:00:57.160Z,99244.84
2023-02-22T05:03:25.575Z,99251.50
2023-02-22T05:05:54.170Z,99246.28
2023-02-22T05:08:22.849Z,99247.41
2023-02-22T05:10:51.255Z,99242.44
2023-02-22T05:13:19.677Z,99248.28
2023-02-22T05:15:49.563Z,99241.94
2023-02-22T05:18:18.270Z,99246.94
2023-02-22T05:20:46.683Z,99247.25
2023-02-22T05:23:15.544Z,99243.66
2023-02-22T05:25:44.516Z,99237.28
2023-02-22T05:28:16.786Z,99240.06
2023-02-22T05:30:45.480Z,99235.66
2023-02-22T05:33:15.333Z,99238.72
2023-02-22T05:35:44.068Z,99245.59
2023-02-22T05:38:15.107Z,99241.19
2023-02-22T05:40:44.729Z,99237.59
2023-02-22T05:43:13.123Z,99243.13
2023-02-22T05:45:41.613Z,99244.25
2023-02-22T05:48:10.345Z,99243.13
2023-02-22T05:50:40.715Z,99245.59
2023-02-22T05:53:09.092Z,99247.47
2023-02-22T05:55:37.481Z,99246.03
2023-02-22T05:58:06.109Z,99246.56
2023-02-22T06:00:34.883Z,99243.50
2023-02-22T06:03:06.258Z,99246.81
2023-02-22T06:05:35.002Z,99258.69
2023-02-22T06:08:06.563Z,99256.47
2023-02-22T06:10:35.454Z,99259.44
2023-02-22T06:13:06.039Z,99259.63
2023-02-22T06:15:34.812Z,99257.41
2023-02-22T06:18:04.060Z,99264.81
2023-02-22T06:20:33.443Z,99252.84
2023-02-22T06:23:01.878Z,99258.31
2023-02-22T06:25:33.451Z,99256.09
2023-02-22T06:28:02.730Z,99258.22
2023-02-22T06:30:32.124Z,99256.81
2023-02-22T06:33:00.534Z,99253.44
2023-02-22T06:35:29.151Z,99260.59
2023-02-22T06:37:57.552Z,99261.94
2023-02-22T06:40:29.813Z,99254.16
2023-02-22T06:43:00.167Z,99262.19
2023-02-22T06:45:28.809Z,99261.59
2023-02-22T06:47:57.263Z,99256.25
2023-02-22T06:50:29.604Z,99263.13
2023-02-22T06:52:59.350Z,99266.94
2023-02-22T06:55:30.256Z,99265.50
2023-02-22T06:58:00.691Z,99255.44
2023-02-22T07:00:31.393Z,99260.09
2023-02-22T07:03:00.837Z,99263.91
2023-02-22T07:05:29.998Z,99266.88
2023-02-22T07:08:05.829Z,99254.69
2023-02-22T07:10:36.864Z,99270.91
2023-02-22T07:13:08.701Z,99272.75
2023-02-22T07:15:37.657Z,99267.41
2023-02-22T07:18:07.433Z,99264.88
2023-02-22T07:20:36.302Z,99252.53
2023-02-22T07:23:05.220Z,99264.38
2023-02-22T07:25:33.828Z,99257.06
2023-02-22T07:28:02.526Z,99254.50
2023-02-22T07:30:34.661Z,99260.56
2023-02-22T07:33:08.395Z,99252.47
2023-02-22T07:35:39.415Z,99261.31
2023-02-22T07:38:09.409Z,99259.56
2023-02-22T07:40:39.096Z,99252.56
2023-02-22T07:43:17.018Z,99256.69
2023-02-22T07:45:48.157Z,99252.97
2023-02-22T07:48:18.810Z,99254.00
2023-02-22T07:50:47.676Z,99253.38
2023-02-22T07:53:19.356Z,99259.16
2023-02-22T07:55:51.020Z,99255.25
2023-02-22T07:58:22.902Z,99254.13
2023-02-22T08:00:53.484Z,99244.34
2023-02-22T08:03:24.997Z,99251.75
2023-02-22T08:05:56.089Z,99250.16
2023-02-22T08:08:25.274Z,99250.56
2023-02-22T08:10:54.118Z,99247.19
2023-02-22T08:13:24.027Z,99243.78
2023-02-22T08:15:55.423Z,99242.84
2023-02-22T08:18:26.392Z,99241.81
2023-02-22T08:20:56.170Z,99245.97
2023-02-22T08:23:27.079Z,99239.41
2023-02-22T08:25:57.039Z,99244.19
2023-02-22T08:28:26.342Z,99241.19
2023-02-22T08:30:56.462Z,99235.34
2023-02-22T08:33:25.129Z,99236.09
2023-02-22T08:35:54.016Z,99236.47
2023-02-22T08:38:25.851Z,99231.78
2023-02-22T08:40:54.430Z,99237.91
2023-02-22T08:43:23.310Z,99235.50
2023-02-22T08:45:54.443Z,99232.53
2023-02-22T08:48:25.341Z,99239.97
2023-02-22T08:50:53.918Z,99239.53
2023-02-22T08:53:22.417Z,99229.41
2023-02-22T08:55:50.999Z,99233.53
2023-02-22T08:58:19.498Z,99227.84
2023-02-22T09:00:47.964Z,99230.00
2023-02-22T09:03:17.274Z,99224.97
2023-02-22T09:05:47.195Z,99225.16
2023-02-22T09:08:17.648Z,99228.13
2023-02-22T09:10:46.566Z,99227.34
2023-02-22T09:13:15.382Z,99228.97
2023-02-22T09:15:44.254Z,99227.81
2023-02-22T09:18:15.705Z,99233.06
2023-02-22T09:20:44.172Z,99231.25
2023-02-22T09:23:14.580Z,99226.81
2023-02-22T09:25:43.121Z,99226.31
2023-02-22T09:28:11.593Z,99222.41
2023-02-22T09:30:40.478Z,99227.16
2023-02-22T09:33:12.530Z,99218.78
2023-02-22T09:35:45.664Z,99218.13
2023-02-22T09:38:18.657Z,99216.78
2023-02-22T09:40:51.244Z,99218.94
2023-02-22T09:43:49.620Z,99220.25
2023-02-22T09:46:29.628Z,99216.97
2023-02-22T09:49:08.278Z,99211.06
2023-02-22T09:51:43.490Z,99215.31
2023-02-22T09:54:20.794Z,99214.81
2023-02-22T09:56:52.652Z,99210.84
2023-02-22T09:59:28.459Z,99206.22
2023-02-22T10:02:06.810Z,99201.91
2023-02-22T10:04:46.000Z,99200.38
2023-02-22T10:07:22.692Z,99204.91
2023-02-22T10:09:56.521Z,99198.97
2023-02-22T10:12:31.457Z,99201.91
2023-02-22T10:15:47.611Z,99197.81
2023-02-22T10:19:02.017Z,99191.09
2023-02-22T10:21:51.853Z,99187.63
2023-02-22T10:24:43.745Z,99192.25
2023-02-22T10:27:22.252Z,99185.78
2023-02-22T10:29:55.845Z,99183.63
2023-02-22T10:32:32.396Z,99184.56
2023-02-22T10:35:05.701Z,99168.44
2023-02-22T10:37:35.760Z,99168.56
2023-02-22T10:40:17.432Z,99174.31
2023-02-22T10:42:47.650Z,99165.22
2023-02-22T10:45:25.660Z,99162.78
2023-02-22T10:47:59.123Z,99168.84
2023-02-22T10:50:30.651Z,99165.38
2023-02-22T10:52:59.113Z,99168.09
2023-02-22T10:55:28.011Z,99158.00
2023-02-22T10:58:06.947Z,99159.81
2023-02-22T11:00:39.532Z,99151.47
2023-02-22T11:03:20.923Z,99152.72
2023-02-22T11:05:50.018Z,99158.63
2023-02-22T11:08:28.186Z,99144.38
2023-02-22T11:10:58.778Z,99152.28
2023-02-22T11:13:32.538Z,99149.63
2023-02-22T11:16:03.701Z,99141.44
2023-02-22T11:18:36.393Z,99135.84
2023-02-22T11:21:10.274Z,99133.50
2023-02-22T11:23:42.573Z,99125.41
2023-02-22T11:26:15.400Z,99111.78
2023-02-22T11:28:49.557Z,99110.38
2023-02-22T11:31:21.771Z,99112.16
2023-02-22T11:36:40.540Z,99106.41
2023-02-22T11:39:25.233Z,99110.28
2023-02-22T11:41:54.189Z,99102.09
2023-02-22T11:44:27.246Z,99109.16
2023-02-22T11:47:01.173Z,99100.72
2023-02-22T11:49:36.782Z,99100.34
2023-02-22T11:52:20.390Z,99087.47
2023-02-22T11:55:32.592Z,99096.13
2023-02-22T11:58:31.184Z,99089.75
2023-02-22T12:01:11.928Z,99092.72
2023-02-22T12:04:22.606Z,99096.31
2023-02-22T12:07:03.792Z,99088.56
2023-02-22T12:09:40.832Z,99080.06
2023-02-22T12:12:22.355Z,99088.94
2023-02-22T12:15:03.447Z,99077.75
2023-02-22T12:18:00.756Z,99074.28
2023-02-22T12:20:39.760Z,99075.91
2023-02-22T12:23:20.233Z,99075.84
2023-02-22T12:26:00.252Z,99076.06
2023-02-22T12:28:37.100Z,99076.13
2023-02-22T12:31:24.531Z,99068.44
2023-02-22T12:34:05.146Z,99052.09
2023-02-22T12:36:41.182Z,99051.25
2023-02-22T12:39:51.844Z,99056.06
2023-02-22T12:42:31.347Z,99042.53
2023-02-22T12:45:07.852Z,99039.34
2023-02-22T12:47:47.226Z,99047.06
2023-02-22T12:50:23.690Z,99038.63
2023-02-22T12:52:58.975Z,99032.13
2023-02-22T12:55:33.506Z,99029.72
2023-02-22T12:58:10.150Z,99039.59
2023-02-22T13:00:46.450Z,99038.28
2023-02-22T13:03:32.775Z,99021.09
2023-02-22T13:06:19.627Z,99018.53
2023-02-22T13:09:05.536Z,99013.13
2023-02-22T13:11:43.544Z,99022.56
2023-02-22T13:14:39.377Z,99013.66
2023-02-22T13:17:21.157Z,99018.53
2023-02-22T13:19:57.035Z,99009.22
2023-02-22T13:22:36.007Z,99006.81
2023-02-22T13:25:15.127Z,99008.88
2023-02-22T13:27:49.742Z,99006.41
2023-02-22T13:30:28.534Z,99014.91
2023-02-22T13:33:33.543Z,99008.44
2023-02-22T13:36:18.635Z,99008.88
2023-02-22T13:39:39.269Z,99003.56
2023-02-22T13:42:33.252Z,98999.50
2023-02-22T13:45:37.899Z,99008.59
2023-02-22T13:48:31.070Z,99011.34
2023-02-22T13:51:32.386Z,99006.28
2023-02-22T13:54:07.573Z,99007.53
2023-02-22T13:56:36.393Z,99006.72
2023-02-22T13:59:06.111Z,99015.91
2023-02-22T14:01:46.024Z,99014.00
2023-02-22T14:04:40.843Z,99008.41
2023-02-22T14:07:57.159Z,99011.78
2023-02-22T14:10:50.067Z,99015.00
2023-02-22T14:13:22.524Z,99017.75
2023-02-22T14:16:22.123Z,99011.38
2023-02-22T14:19:02.748Z,99015.66
2023-02-22T14:21:31.275Z,99010.25
2023-02-22T14:24:11.010Z,99014.69
2023-02-22T14:26:42.665Z,99009.78
2023-02-22T14:29:20.537Z,99009.22
2023-02-22T14:32:07.677Z,99011.63
2023-02-22T14:34:50.947Z,99009.53
2023-02-22T14:37:25.687Z,99011.69
2023-02-22T14:40:02.292Z,99011.31
2023-02-22T14:42:37.200Z,99008.66
2023-02-22T14:45:18.859Z,99006.34
2023-02-22T14:48:01.197Z,99010.88
2023-02-22T14:50:44.170Z,99014.53
2023-02-22T14:53:25.409Z,99014.78
2023-02-22T14:56:02.466Z,99016.63
2023-02-22T14:58:41.850Z,99009.66
2023-02-22T15:01:44.392Z,99008.56
2023-02-22T15:04:25.676Z,99001.72
2023-02-22T15:06:55.678Z,99009.88
2023-02-22T15:09:29.069Z,99011.38
2023-02-22T15:12:14.816Z,99002.88
2023-02-22T15:14:47.757Z,99010.09
2023-02-22T15:17:24.733Z,99006.50
2023-02-22T15:19:55.108Z,99007.00
2023-02-22T15:22:28.398Z,99014.53
2023-02-22T15:25:01.955Z,99001.75
2023-02-22T15:27:34.624Z,99012.06
2023-02-22T15:30:18.787Z,99013.47
2023-02-22T15:33:03.031Z,99017.53
2023-02-22T15:35:33.924Z,99013.94
2023-02-22T15:38:06.229Z,99014.41
2023-02-22T15:40:36.005Z,99013.25
2023-02-22T15:43:08.965Z,99019.59
2023-02-22T15:45:43.192Z,99007.31
2023-02-22T15:48:12.642Z,99005.00
2023-02-22T15:50:41.215Z,99013.81
2023-02-22T15:53:25.499Z,99010.69
2023-02-22T15:55:59.947Z,99019.78
2023-02-22T15:58:30.168Z,99006.34
2023-02-22T16:01:05.161Z,99019.06
2023-02-22T16:03:44.976Z,99013.94
2023-02-22T16:06:25.945Z,99010.50
2023-02-22T16:08:55.947Z,99016.50
2023-02-22T16:11:31.049Z,99012.03
2023-02-22T16:14:05.535Z,99018.84
2023-02-22T16:16:41.600Z,99019.28
2023-02-22T16:19:37.166Z,99017.09
2023-02-22T16:22:27.051Z,99020.31
2023-02-22T16:24:56.245Z,99020.25
2023-02-22T16:27:26.602Z,99030.97
2023-02-22T16:30:23.225Z,99029.22
2023-02-22T16:32:56.536Z,99036.03
2023-02-22T16:35:29.795Z,99033.34
2023-02-22T16:38:01.744Z,99023.53
2023-02-22T16:40:35.101Z,99031.63
2023-02-22T16:43:07.281Z,99033.41
2023-02-22T16:45:36.763Z,99042.31
2023-02-22T16:48:23.531Z,99043.88
2023-02-22T16:50:54.209Z,99043.38
2023-02-22T16:53:27.155Z,99049.00
2023-02-22T16:56:03.541Z,99051.59
2023-02-22T16:58:39.168Z,99046.47
2023-02-22T17:01:08.775Z,99049.03
2023-02-22T17:03:39.624Z,99044.41
2023-02-22T17:06:10.563Z,99053.38
2023-02-22T17:08:39.579Z,99053.16
2023-02-22T17:11:09.974Z,99061.28
2023-02-22T17:13:41.175Z,99062.72
2023-02-22T17:16:15.275Z,99053.38
2023-02-22T17:18:46.150Z,99061.97
2023-02-22T17:21:16.777Z,99062.63
2023-02-22T17:23:47.412Z,99062.38
2023-02-22T17:26:17.797Z,99063.00
2023-02-22T17:28:52.592Z,99070.56
2023-02-22T17:31:30.945Z,99064.81
2023-02-22T17:34:06.384Z,99061.00
2023-02-22T17:36:38.344Z,99059.97
2023-02-22T17:39:10.701Z,99071.34
2023-02-22T17:41:40.996Z,99071.97
2023-02-22T17:44:11.274Z,99064.59
2023-02-22T17:46:44.468Z,99069.91
2023-02-22T17:49:15.911Z,99058.91
2023-02-22T17:51:49.924Z,99066.19
2023-02-22T17:54:19.939Z,99069.88
2023-02-22T17:56:49.194Z,99056.13
2023-02-22T17:59:19.214Z,99064.06
2023-02-22T18:01:52.846Z,99059.31
2023-02-22T18:04:24.186Z,99053.56
2023-02-22T18:06:53.819Z,99058.38
2023-02-22T18:09:24.937Z,99060.41
2023-02-22T18:11:55.148Z,99063.28
2023-02-22T18:14:26.464Z,99063.34
2023-02-22T18:16:57.042Z,99062.31
2023-02-22T18:19:29.435Z,99056.88
2023-02-22T18:22:03.349Z,99051.13
2023-02-22T18:24:35.924Z,99053.13
2023-02-22T18:27:08.546Z,99060.09
2023-02-22T18:29:37.996Z,99064.28
2023-02-22T18:32:13.843Z,99060.16
2023-02-22T18:34:48.916Z,99066.59
2023-02-22T18:37:21.814Z,99063.63
2023-02-22T18:39:54.026Z,99062.56
2023-02-22T18:42:25.421Z,99050.94
2023-02-22T18:45:02.234Z,99060.66
2023-02-22T18:47:33.065Z,99054.94
2023-02-22T18:50:09.137Z,99056.34
2023-02-22T18:52:46.490Z,99060.53
2023-02-22T18:55:18.846Z,99055.06
2023-02-22T18:57:51.282Z,99054.53
2023-02-22T19:00:29.255Z,99054.63
2023-02-22T19:02:59.980Z,99059.63
2023-02-22T19:05:33.629Z,99057.47
2023-02-22T19:08:04.742Z,99061.66
2023-02-22T19:10:35.767Z,99059.47
2023-02-22T19:13:11.231Z,99063.66
2023-02-22T19:15:43.441Z,99059.84
2023-02-22T19:18:13.432Z,99061.78
2023-02-22T19:20:46.672Z,99061.25
2023-02-22T19:23:17.002Z,99053.28
2023-02-22T19:25:49.220Z,99058.88
2023-02-22T19:28:19.207Z,99062.22
2023-02-22T19:30:49.992Z,99051.22
2023-02-22T19:33:26.663Z,99054.88
2023-02-22T19:36:03.923Z,99054.94
2023-02-22T19:38:34.269Z,99058.59
2023-02-22T19:41:12.934Z,99055.91
2023-02-22T19:43:43.087Z,99057.59
2023-02-22T19:46:13.950Z,99055.72
2023-02-22T19:48:44.346Z,99060.44
2023-02-22T19:51:19.818Z,99060.50
2023-02-22T19:53:51.492Z,99067.13
2023-02-22T19:56:27.582Z,99068.00
2023-02-22T19:59:01.214Z,99066.66
2023-02-22T20:01:34.526Z,99065.28
2023-02-22T20:04:12.887Z,99072.22
2023-02-22T20:06:46.461Z,99071.13
2023-02-22T20:09:19.730Z,99071.44
2023-02-22T20:11:49.853Z,99075.31
2023-02-22T20:14:23.485Z,99077.84
2023-02-22T20:16:54.854Z,99080.88
2023-02-22T20:19:27.134Z,99079.25
2023-02-22T20:22:00.998Z,99083.41
2023-02-22T20:24:35.180Z,99078.47
2023-02-22T20:27:07.878Z,99088.97
2023-02-22T20:29:38.965Z,99085.69
2023-02-22T20:32:11.949Z,99084.84
2023-02-22T20:34:47.652Z,99086.56
2023-02-22T20:37:24.100Z,99095.94
2023-02-22T20:39:54.405Z,99100.38
2023-02-22T20:42:24.500Z,99099.56
2023-02-22T20:44:56.107Z,99099.34
2023-02-22T20:47:28.266Z,99093.28
2023-02-22T20:49:58.841Z,99097.44
2023-02-22T20:52:30.893Z,99098.00
2023-02-22T20:55:04.333Z,99096.66
2023-02-22T20:57:35.244Z,99097.25
2023-02-22T21:00:10.617Z,99088.41
2023-02-22T21:02:40.590Z,99086.25
2023-02-22T21:05:11.665Z,99093.69
2023-02-22T21:07:43.648Z,99093.75
2023-02-22T21:10:15.005Z,99095.97
2023-02-22T21:12:46.746Z,99082.75
2023-02-22T21:15:18.093Z,99087.72
2023-02-22T21:17:48.083Z,99080.59
2023-02-22T21:20:22.377Z,99080.31
2023-02-22T21:22:55.759Z,99080.31
2023-02-22T21:25:30.135Z,99077.03
2023-02-22T21:28:00.963Z,99077.31
2023-02-22T21:30:32.451Z,99077.06
2023-02-22T21:33:02.715Z,99077.06
2023-02-22T21:35:32.378Z,99068.25
2023-02-22T21:38:03.412Z,99077.94
2023-02-22T21:40:33.074Z,99078.22
2023-02-22T21:43:03.679Z,99067.50
2023-02-22T21:45:32.568Z,99072.44
2023-02-22T21:48:01.221Z,99068.34
2023-02-22T21:50:30.651Z,99070.56
2023-02-22T21:53:00.127Z,99066.47
2023-02-22T21:55:30.274Z,99070.88
2023-02-22T21:57:58.718Z,99069.50
2023-02-22T22:00:31.107Z,99071.72
2023-02-22T22:03:05.856Z,99069.56
2023-02-22T22:05:34.798Z,99066.56
2023-02-22T22:08:07.322Z,99062.44
2023-02-22T22:10:38.123Z,99060.22
2023-02-22T22:13:09.150Z,99064.09
2023-02-22T22:15:37.940Z,99060.25
2023-02-22T22:18:08.126Z,99058.91
2023-02-22T22:20:39.079Z,99056.69
2023-02-22T22:23:08.465Z,99062.50
2023-02-22T22:25:39.054Z,99055.91
2023-02-22T22:28:08.649Z,99057.31
2023-02-22T22:30:37.445Z,99056.22
2023-02-22T22:33:08.412Z,99056.50
2023-02-22T22:35:41.843Z,99054.59
2023-02-22T22:38:10.519Z,99048.56
2023-02-22T22:40:40.782Z,99052.72
2023-02-22T22:43:09.203Z,99056.84
2023-02-22T22:45:39.215Z,99053.56
2023-02-22T22:48:08.806Z,99052.19
2023-02-22T22:50:37.734Z,99049.72
2023-02-22T22:53:06.873Z,99058.53
2023-02-22T22:55:35.434Z,99060.75
2023-02-22T22:58:05.270Z,99053.06
2023-02-22T23:00:37.502Z,99055.28
2023-02-22T23:03:07.028Z,99060.25
2023-02-22T23:05:42.292Z,99053.66
2023-02-22T23:08:12.952Z,99052.81
2023-02-22T23:10:42.630Z,99054.22
2023-02-22T23:13:15.696Z,99051.75
2023-02-22T23:15:47.644Z,99051.19
2023-02-22T23:18:20.454Z,99054.22
2023-02-22T23:20:55.175Z,99057.28
2023-02-22T23:23:27.654Z,99055.59
2023-02-22T23:26:11.750Z,99048.19
2023-02-22T23:28:43.194Z,99049.31
2023-02-22T23:31:14.605Z,99055.91
2023-02-22T23:33:45.084Z,99047.66
2023-02-22T23:36:13.752Z,99046.03
2023-02-22T23:38:42.483Z,99050.69
2023-02-22T23:41:16.600Z,99044.91
2023-02-22T23:43:47.383Z,99050.44
2023-02-22T23:46:19.505Z,99043.56
2023-02-22T23:48:52.691Z,99042.75
2023-02-22T23:51:25.717Z,99041.09
2023-02-22T23:53:56.693Z,99041.38
2023-02-22T23:56:27.651Z,99044.38
2023-02-22T23:58:58.149Z,99045.50
